Honaunau, HI

1:36 AM HST on February 10, 2016 (GMT -1000)
Halemalu | | Change Station
CLOSE
Current Station
Personal Weather Station
Location: Captain Cook, HI
Elevation: 1656 ft
Nearby Weather Stations
Active Advisory: High Surf Warning

Elev 1656 ft 19.50 °N, 155.91 °W | Updated 13 seconds ago

Clear
Clear
59.7 °F
Feels Like 59.7 °F
N
1.0
Wind Variable Wind from NE
Gusts 2.0 mph

Today
High -- | Low -- °F
--% Chance of Precip.
Yesterday
High -- | Low -- °F
Precip. -- in
Pressure 30.04 in
Visibility 10.0 miles
Clouds Clear
Dew Point 52 °F
Humidity 77%
Rainfall 0.00 in
Snow Depth Not available.
6:54 AM 6:20 PM
Waxing Crescent, 5% visible
METAR PHKO 101053Z AUTO 04008KT 10SM CLR 22/13 A3004 RMK AO2 SLP173 T02170128 TSNO
Pressure 30.04 in
Visibility 10.0 miles
Clouds Clear
Dew Point 52 °F
Humidity 77%
Rainfall 0.00 in
Snow Depth Not available.
6:54 AM 6:20 PM
Waxing Crescent, 5% visible
METAR PHKO 101053Z AUTO 04008KT 10SM CLR 22/13 A3004 RMK AO2 SLP173 T02170128 TSNO

10-Day Weather Forecast

Almanac

Astronomy

Feb. 10, 2016 Rise Set
Actual Time
Civil Twilight
Nautical Twilight
Astronomical Twilight
Moon
Length of Visible Light
Length of Day
Tomorrow will be .
, % of the Moon is Illuminated

Today's Extremes

State Highs State Lows

Community

WunderPhotos

Upload Photos

1,891,830 photos uploaded!

WunderBlog® & News

Nearby

Air Quality

  Air Quality AQ Index Pollutant
Not available.

Snow Depth

Station Depth Elevation

Earthquake Activity

City Distance Mag. Time & Date
Minimum magnitude displayed is 2.5.

Coastal Water Temperatures

Place Temperature

Stations

Nearby Weather Stations

Station Location Temp. Windchill Dew Point Humidity Wind Precip. Elev Updated Type
                   

Watches & Warnings

High Surf Warning
Issued: 3:37 PM HST Feb. 9, 2016 – National Weather Service

... High surf warning in effect from noon Wednesday to 6 PM HST
Thursday...

The National Weather Service in Honolulu has issued a high surf
warning... which is in effect from noon Wednesday to 6 PM HST
Thursday.

* Surf... along west facing shores of The Big Island expect surf
to increase to 8 to 12 feet Wednesday.

* Timing... noon Wednesday to 6 PM HST Thursday.

* Impacts... high... expect ocean water occasionally sweeping across
portions of beaches... very strong breaking waves and strong
longshore and rip currents. Breaking waves may occasionally
impact harbors making navigating The Harbor channel dangerous.

Precautionary/preparedness actions...

Large breaking surf... significant shorebreak... and dangerous
currents make entering the water very hazardous. Anyone entering
the water could face significant injury or death. Boaters should
be aware of an increased number of surfers utilizing The Harbor
channel to access surfing areas.